Time;durP1;ratioP1;P1;durP2;ratioP2;P2;SDS_P1;SDS_P2;PMS_P1;PMS_P2;Temp;Humidity;BMP_temperature;BMP_pressure;BME280_temperature;BME280_humidity;BME280_pressure;Samples;Min_cycle;Max_cycle;Signal;HPM_P1;HPM_P2
2022/09/08 00:00:20;;;;;;;48.72;42.67;;;;;;;;;;5012848;28;20182;-69
2022/09/08 00:02:45;;;;;;;49.08;43.58;;;;;;;;;;5020315;28;20296;-68
2022/09/08 00:05:14;;;;;;;56.97;43.47;;;;;;;;;;5023314;28;20364;-68
2022/09/08 00:07:41;;;;;;;56.42;45.50;;;;;;;;;;5016144;28;20640;-68
2022/09/08 00:10:07;;;;;;;57.03;48.00;;;;;;;;;;5023977;28;20285;-68
2022/09/08 00:12:34;;;;;;;60.10;51.10;;;;;;;;;;5019118;28;20197;-68
2022/09/08 00:15:00;;;;;;;59.35;46.70;;;;;;;;;;5011342;28;20198;-68
2022/09/08 00:17:27;;;;;;;51.72;45.65;;;;;;;;;;5019641;28;20192;-68
2022/09/08 00:19:53;;;;;;;56.22;47.28;;;;;;;;;;5023968;28;20537;-68
2022/09/08 00:22:18;;;;;;;51.60;46.10;;;;;;;;;;5021231;28;20257;-68
2022/09/08 00:24:43;;;;;;;59.97;48.42;;;;;;;;;;5024264;28;20720;-68
2022/09/08 00:27:09;;;;;;;57.15;47.70;;;;;;;;;;4979284;28;1149950;-68
2022/09/08 00:29:34;;;;;;;59.22;48.85;;;;;;;;;;5025248;28;20952;-68
2022/09/08 00:32:00;;;;;;;62.13;51.75;;;;;;;;;;5018279;28;20607;-68
2022/09/08 00:34:25;;;;;;;59.45;49.85;;;;;;;;;;5024083;28;20185;-69
2022/09/08 00:36:51;;;;;;;59.85;48.20;;;;;;;;;;5015830;28;20440;-68
2022/09/08 00:39:17;;;;;;;60.55;49.67;;;;;;;;;;5018661;28;20186;-68
2022/09/08 00:41:42;;;;;;;56.55;47.22;;;;;;;;;;5025000;28;20260;-68
2022/09/08 00:44:59;;;;;;;59.22;49.85;;;;;;;;;;5019937;28;20700;-69
2022/09/08 00:47:26;;;;;;;60.88;48.30;;;;;;;;;;5012008;28;20195;-68
2022/09/08 00:50:17;;;;;;;64.72;49.85;;;;;;;;;;5019393;28;20236;-68
2022/09/08 00:52:47;;;;;;;55.63;47.97;;;;;;;;;;5020724;28;20192;-69
2022/09/08 00:55:14;;;;;;;60.53;50.03;;;;;;;;;;5022947;28;20257;-68
2022/09/08 00:57:39;;;;;;;58.60;47.35;;;;;;;;;;5018267;28;20627;-68
2022/09/08 01:00:07;;;;;;;51.40;45.90;;;;;;;;;;5012221;28;20195;-68
2022/09/08 01:02:33;;;;;;;53.22;45.67;;;;;;;;;;5019998;28;20623;-68
2022/09/08 01:05:11;;;;;;;51.70;43.50;;;;;;;;;;5018149;28;20196;-69
2022/09/08 01:14:10;;;;;;;62.20;48.00;;;;;;;;;;5016304;28;20285;-68
2022/09/08 01:16:41;;;;;;;59.97;47.70;;;;;;;;;;5018253;28;20337;-68
2022/09/08 01:19:19;;;;;;;55.00;46.35;;;;;;;;;;5013727;28;20197;-68
2022/09/08 01:22:23;;;;;;;52.17;44.15;;;;;;;;;;5009357;28;20214;-68
2022/09/08 01:25:00;;;;;;;53.50;45.55;;;;;;;;;;5004268;28;20229;-68
2022/09/08 01:27:31;;;;;;;54.42;45.58;;;;;;;;;;5023538;28;20565;-68
2022/09/08 01:30:06;;;;;;;52.72;44.70;;;;;;;;;;5022238;28;20557;-68
2022/09/08 01:32:35;;;;;;;55.60;46.33;;;;;;;;;;5027984;28;20229;-68
2022/09/08 01:35:01;;;;;;;55.13;46.20;;;;;;;;;;5026500;28;20201;-69
2022/09/08 01:37:26;;;;;;;56.25;46.88;;;;;;;;;;5017903;28;20191;-69
2022/09/08 01:39:52;;;;;;;59.65;47.75;;;;;;;;;;5024397;28;20174;-69
2022/09/08 01:42:17;;;;;;;55.58;46.30;;;;;;;;;;5029653;28;20265;-68
2022/09/08 01:44:43;;;;;;;58.47;46.67;;;;;;;;;;5015002;28;20253;-69
2022/09/08 01:47:09;;;;;;;56.03;44.78;;;;;;;;;;5026762;28;20201;-68
2022/09/08 01:49:35;;;;;;;57.83;46.47;;;;;;;;;;5026177;28;20189;-68
2022/09/08 01:52:00;;;;;;;57.80;45.78;;;;;;;;;;5029134;28;20601;-68
2022/09/08 01:54:27;;;;;;;55.13;47.58;;;;;;;;;;5014695;28;20185;-68
2022/09/08 01:56:54;;;;;;;57.17;46.67;;;;;;;;;;5028729;28;20655;-68
2022/09/08 01:59:19;;;;;;;57.17;46.20;;;;;;;;;;5020814;28;20189;-68
2022/09/08 02:01:45;;;;;;;56.70;47.20;;;;;;;;;;5024978;28;20186;-68
2022/09/08 02:04:10;;;;;;;59.78;47.83;;;;;;;;;;5024069;28;20284;-68
2022/09/08 02:06:35;;;;;;;59.50;48.45;;;;;;;;;;5021713;28;20645;-68
2022/09/08 02:09:01;;;;;;;60.90;46.92;;;;;;;;;;5017494;28;20273;-68
2022/09/08 02:11:26;;;;;;;60.50;48.58;;;;;;;;;;5020529;28;20186;-68
2022/09/08 02:13:51;;;;;;;58.53;47.60;;;;;;;;;;5017431;28;20592;-68
2022/09/08 02:16:17;;;;;;;56.58;46.28;;;;;;;;;;5017348;28;20234;-69
2022/09/08 02:18:42;;;;;;;56.30;45.90;;;;;;;;;;5023797;28;20190;-68
2022/09/08 02:21:11;;;;;;;54.63;45.40;;;;;;;;;;5027222;28;20220;-68
2022/09/08 02:23:39;;;;;;;60.10;45.28;;;;;;;;;;5025844;28;20194;-68
2022/09/08 02:26:05;;;;;;;53.22;45.83;;;;;;;;;;5027431;28;20436;-68
2022/09/08 02:28:31;;;;;;;56.28;44.38;;;;;;;;;;5026722;28;20273;-68
2022/09/08 02:30:58;;;;;;;60.42;47.40;;;;;;;;;;5025256;28;20182;-68
2022/09/08 02:33:24;;;;;;;52.08;44.58;;;;;;;;;;5022363;28;20244;-69
2022/09/08 02:35:49;;;;;;;59.40;47.50;;;;;;;;;;5017147;28;20201;-69
2022/09/08 02:38:15;;;;;;;54.40;44.47;;;;;;;;;;5024379;28;20616;-68
2022/09/08 02:40:41;;;;;;;61.17;46.40;;;;;;;;;;5027300;28;20686;-69
2022/09/08 02:43:06;;;;;;;58.08;45.80;;;;;;;;;;5025111;28;20218;-68
2022/09/08 02:45:31;;;;;;;56.30;46.63;;;;;;;;;;5024284;28;20518;-68
2022/09/08 02:47:58;;;;;;;59.08;46.80;;;;;;;;;;5026517;28;20274;-69
2022/09/08 02:50:23;;;;;;;58.83;45.80;;;;;;;;;;5024431;28;20237;-69
2022/09/08 02:52:49;;;;;;;54.78;45.83;;;;;;;;;;5024615;28;20232;-69
2022/09/08 02:55:14;;;;;;;55.97;47.20;;;;;;;;;;5026140;28;20186;-68
2022/09/08 02:57:39;;;;;;;57.00;46.45;;;;;;;;;;5024045;28;20186;-69
2022/09/08 03:00:05;;;;;;;50.75;44.42;;;;;;;;;;5024200;28;20280;-69
2022/09/08 03:02:31;;;;;;;51.47;44.15;;;;;;;;;;5025336;28;20187;-69
2022/09/08 03:04:56;;;;;;;58.25;46.35;;;;;;;;;;5027945;28;20591;-68
2022/09/08 03:07:22;;;;;;;56.95;45.22;;;;;;;;;;5026542;28;20194;-68
2022/09/08 03:09:49;;;;;;;46.97;39.58;;;;;;;;;;5026080;28;20178;-68
2022/09/08 03:12:14;;;;;;;54.67;44.05;;;;;;;;;;5026584;28;20186;-68
2022/09/08 03:14:39;;;;;;;50.58;44.53;;;;;;;;;;5028143;28;20197;-68
2022/09/08 03:17:05;;;;;;;53.28;42.33;;;;;;;;;;5027404;28;20190;-68
2022/09/08 03:19:30;;;;;;;51.45;43.80;;;;;;;;;;5025958;28;20174;-68
2022/09/08 03:21:56;;;;;;;52.13;44.13;;;;;;;;;;5024644;28;20386;-68
2022/09/08 03:24:21;;;;;;;51.83;44.47;;;;;;;;;;5022569;28;20273;-68
2022/09/08 03:26:46;;;;;;;53.38;43.75;;;;;;;;;;5024881;28;20225;-68
2022/09/08 03:29:12;;;;;;;52.25;44.22;;;;;;;;;;5020197;28;20241;-68
2022/09/08 03:31:37;;;;;;;51.20;42.85;;;;;;;;;;5025740;28;20283;-68
2022/09/08 03:34:03;;;;;;;51.05;43.25;;;;;;;;;;5015088;28;20518;-68
2022/09/08 03:36:28;;;;;;;48.15;40.75;;;;;;;;;;5018774;28;20178;-69
2022/09/08 03:38:54;;;;;;;48.63;42.55;;;;;;;;;;5021314;28;20401;-69
2022/09/08 03:41:19;;;;;;;48.90;41.70;;;;;;;;;;5025981;28;20230;-69
2022/09/08 03:43:47;;;;;;;53.45;41.88;;;;;;;;;;5023187;28;20189;-69
2022/09/08 03:46:13;;;;;;;48.72;41.90;;;;;;;;;;5025395;28;20629;-69
2022/09/08 03:48:39;;;;;;;48.15;41.67;;;;;;;;;;5019960;28;20183;-68
2022/09/08 03:51:14;;;;;;;46.70;41.17;;;;;;;;;;5016981;28;20196;-68
2022/09/08 03:53:40;;;;;;;50.05;41.33;;;;;;;;;;5025659;28;20185;-68
2022/09/08 03:56:07;;;;;;;51.17;41.78;;;;;;;;;;5027419;28;20268;-69
2022/09/08 03:58:32;;;;;;;48.10;40.08;;;;;;;;;;5021583;28;20245;-68
2022/09/08 04:01:00;;;;;;;48.72;39.92;;;;;;;;;;5019973;28;20174;-68
2022/09/08 04:03:25;;;;;;;50.10;40.13;;;;;;;;;;5006556;28;20590;-68
2022/09/08 04:05:51;;;;;;;43.92;38.78;;;;;;;;;;5022082;28;20261;-68
2022/09/08 04:08:16;;;;;;;46.85;40.05;;;;;;;;;;5027146;28;20216;-68
2022/09/08 04:10:42;;;;;;;47.08;38.80;;;;;;;;;;5019877;28;20210;-68
2022/09/08 04:13:07;;;;;;;44.17;39.33;;;;;;;;;;5019372;28;20255;-68
2022/09/08 04:15:33;;;;;;;46.85;38.53;;;;;;;;;;5023822;28;20564;-69
2022/09/08 04:17:58;;;;;;;48.17;40.05;;;;;;;;;;5020650;28;20308;-68
2022/09/08 04:20:24;;;;;;;46.15;39.42;;;;;;;;;;5021385;28;20300;-69
2022/09/08 04:22:49;;;;;;;46.95;38.65;;;;;;;;;;5017766;28;20186;-68
2022/09/08 04:25:15;;;;;;;43.72;37.70;;;;;;;;;;5018593;28;20288;-68
2022/09/08 04:34:43;;;;;;;46.63;39.72;;;;;;;;;;5012996;28;20195;-68
2022/09/08 04:37:08;;;;;;;43.65;36.42;;;;;;;;;;5020510;28;20189;-68
2022/09/08 04:39:38;;;;;;;43.65;38.28;;;;;;;;;;5021181;28;20178;-68
2022/09/08 04:42:28;;;;;;;41.92;36.67;;;;;;;;;;5017229;28;20186;-68
2022/09/08 06:05:43;;;;;;;34.40;28.30;;;;;;;;;;5015445;28;20241;-69
2022/09/08 06:08:09;;;;;;;36.35;29.10;;;;;;;;;;5024867;28;20621;-67
2022/09/08 06:10:35;;;;;;;39.42;27.77;;;;;;;;;;5015440;28;20182;-65
2022/09/08 06:13:00;;;;;;;41.05;31.23;;;;;;;;;;5019061;28;20178;-66
2022/09/08 06:15:26;;;;;;;39.40;31.48;;;;;;;;;;5024853;28;20170;-65
2022/09/08 06:17:51;;;;;;;42.25;33.70;;;;;;;;;;5027234;28;20182;-65
2022/09/08 06:20:16;;;;;;;51.20;37.10;;;;;;;;;;5025075;28;20572;-68
2022/09/08 06:22:42;;;;;;;47.58;38.22;;;;;;;;;;5019303;28;20182;-65
2022/09/08 06:25:07;;;;;;;49.38;37.70;;;;;;;;;;5027231;28;20202;-66
2022/09/08 06:27:58;;;;;;;46.92;38.40;;;;;;;;;;5027631;28;20522;-66
2022/09/08 06:30:23;;;;;;;49.15;38.13;;;;;;;;;;5024635;28;20665;-66
2022/09/08 06:33:03;;;;;;;42.33;35.22;;;;;;;;;;4681753;28;10001148;-67
2022/09/08 06:35:41;;;;;;;45.75;36.08;;;;;;;;;;5020969;28;20726;-66
2022/09/08 06:38:13;;;;;;;42.85;34.10;;;;;;;;;;5021377;28;20661;-68
2022/09/08 06:40:42;;;;;;;45.75;34.30;;;;;;;;;;5027689;28;20555;-67
2022/09/08 06:43:23;;;;;;;40.70;30.75;;;;;;;;;;5020894;28;20328;-68
2022/09/08 06:45:50;;;;;;;38.05;27.65;;;;;;;;;;5015127;28;20214;-68
2022/09/08 06:48:35;;;;;;;32.55;24.58;;;;;;;;;;5022872;28;20232;-67
2022/09/08 06:51:06;;;;;;;25.30;17.27;;;;;;;;;;5015449;28;20591;-68
2022/09/08 06:53:41;;;;;;;23.42;15.52;;;;;;;;;;5021915;28;20269;-67
2022/09/08 06:56:33;;;;;;;22.90;15.07;;;;;;;;;;5017819;28;20652;-67
2022/09/08 06:59:22;;;;;;;19.40;14.20;;;;;;;;;;5014144;28;20228;-67
2022/09/08 07:02:01;;;;;;;18.85;13.18;;;;;;;;;;5022995;28;20248;-67
2022/09/08 07:04:50;;;;;;;14.80;11.13;;;;;;;;;;5021876;28;20529;-66
2022/09/08 07:07:31;;;;;;;17.27;11.05;;;;;;;;;;5024674;28;20289;-66
2022/09/08 07:10:03;;;;;;;15.52;10.23;;;;;;;;;;5020403;28;20179;-66
2022/09/08 07:12:47;;;;;;;12.40;9.48;;;;;;;;;;5020523;28;20513;-67
2022/09/08 07:15:39;;;;;;;14.77;9.07;;;;;;;;;;5017567;28;20193;-66
2022/09/08 07:18:20;;;;;;;14.15;8.65;;;;;;;;;;5023465;28;20602;-67
2022/09/08 07:20:45;;;;;;;14.20;8.63;;;;;;;;;;5017146;28;20250;-68
2022/09/08 07:23:24;;;;;;;15.68;9.48;;;;;;;;;;5023728;28;20637;-66
2022/09/08 07:26:31;;;;;;;12.00;8.90;;;;;;;;;;5017355;28;20543;-69
2022/09/08 07:29:03;;;;;;;14.57;8.50;;;;;;;;;;5010719;28;20816;-69
2022/09/08 07:31:28;;;;;;;11.32;8.15;;;;;;;;;;5024000;28;20660;-68
2022/09/08 07:34:05;;;;;;;14.70;9.05;;;;;;;;;;5022427;28;20220;-68
2022/09/08 07:36:44;;;;;;;11.73;8.05;;;;;;;;;;5016812;28;20209;-71
2022/09/08 07:39:20;;;;;;;14.68;8.80;;;;;;;;;;5020082;28;20240;-71
2022/09/08 07:41:58;;;;;;;14.27;9.30;;;;;;;;;;5021832;28;20182;-71
2022/09/08 07:44:25;;;;;;;16.35;9.80;;;;;;;;;;5021869;28;20686;-71
2022/09/08 07:47:23;;;;;;;14.32;10.23;;;;;;;;;;5014844;28;20276;-71
2022/09/08 07:50:00;;;;;;;12.95;9.70;;;;;;;;;;5021186;28;20170;-72
2022/09/08 07:52:50;;;;;;;14.55;10.35;;;;;;;;;;5026290;28;20180;-71
2022/09/08 07:55:37;;;;;;;12.27;9.90;;;;;;;;;;5023720;28;20186;-72
2022/09/08 07:58:30;;;;;;;12.98;9.80;;;;;;;;;;5027627;28;20289;-71
2022/09/08 08:01:20;;;;;;;13.25;10.48;;;;;;;;;;5025567;28;20670;-72
2022/09/08 08:04:26;;;;;;;11.98;9.85;;;;;;;;;;5024592;28;20178;-73
2022/09/08 08:06:54;;;;;;;13.52;10.65;;;;;;;;;;5014479;28;20317;-73
2022/09/08 08:09:24;;;;;;;13.52;10.50;;;;;;;;;;5025525;28;20183;-74
2022/09/08 08:12:21;;;;;;;11.25;9.77;;;;;;;;;;5024030;28;20208;-73
2022/09/08 08:14:55;;;;;;;13.00;9.05;;;;;;;;;;5026522;28;20185;-73
2022/09/08 08:17:29;;;;;;;9.73;8.45;;;;;;;;;;5026718;28;20260;-73
2022/09/08 08:20:29;;;;;;;10.90;9.02;;;;;;;;;;5027025;28;20539;-72
2022/09/08 08:23:00;;;;;;;11.70;8.55;;;;;;;;;;5021481;28;20197;-71
2022/09/08 08:25:34;;;;;;;14.13;9.45;;;;;;;;;;5022263;28;20202;-71
2022/09/08 08:28:17;;;;;;;10.02;7.45;;;;;;;;;;5024039;28;20174;-71
2022/09/08 08:31:01;;;;;;;8.30;6.43;;;;;;;;;;5025546;28;20174;-71
2022/09/08 08:33:32;;;;;;;9.10;6.55;;;;;;;;;;5025035;28;20178;-72
2022/09/08 08:36:05;;;;;;;9.27;6.55;;;;;;;;;;5020881;28;20533;-71
2022/09/08 08:38:45;;;;;;;7.05;5.90;;;;;;;;;;5028552;28;20654;-73
2022/09/08 08:41:41;;;;;;;7.78;5.47;;;;;;;;;;5032221;28;20193;-71
2022/09/08 08:44:29;;;;;;;8.73;6.00;;;;;;;;;;5032000;28;20203;-71
2022/09/08 08:47:13;;;;;;;10.43;6.75;;;;;;;;;;5024868;28;20682;-71
2022/09/08 08:50:06;;;;;;;7.85;6.18;;;;;;;;;;5020447;28;20177;-72
2022/09/08 08:52:54;;;;;;;9.30;6.35;;;;;;;;;;5027706;28;20547;-72
2022/09/08 08:56:03;;;;;;;10.18;6.45;;;;;;;;;;5028542;28;20276;-71
2022/09/08 08:59:01;;;;;;;8.18;6.47;;;;;;;;;;5025427;28;20292;-72
2022/09/08 09:01:44;;;;;;;9.95;7.15;;;;;;;;;;5024535;28;20784;-72
2022/09/08 09:04:48;;;;;;;11.82;8.18;;;;;;;;;;5031604;28;20260;-72
2022/09/08 09:07:55;;;;;;;11.85;8.00;;;;;;;;;;5015959;28;20205;-73
2022/09/08 09:10:42;;;;;;;13.70;8.57;;;;;;;;;;5029974;28;20260;-72
2022/09/08 09:13:23;;;;;;;9.88;8.38;;;;;;;;;;5030090;28;20180;-71
2022/09/08 09:16:14;;;;;;;8.63;7.35;;;;;;;;;;5029639;28;20213;-72
2022/09/08 09:19:08;;;;;;;9.40;7.85;;;;;;;;;;5021300;28;20202;-72
2022/09/08 09:22:12;;;;;;;11.38;8.85;;;;;;;;;;5018104;28;20198;-72
2022/09/08 09:25:11;;;;;;;9.93;8.13;;;;;;;;;;5016834;28;20400;-72
2022/09/08 09:27:44;;;;;;;10.82;8.23;;;;;;;;;;5029608;28;20281;-71
2022/09/08 09:30:19;;;;;;;13.75;8.18;;;;;;;;;;5031068;28;20185;-72
2022/09/08 09:33:22;;;;;;;9.80;7.95;;;;;;;;;;5030312;28;20228;-71
2022/09/08 09:35:59;;;;;;;8.25;6.32;;;;;;;;;;5027326;28;20189;-71
2022/09/08 09:38:44;;;;;;;10.60;7.00;;;;;;;;;;5028659;28;20256;-70
2022/09/08 09:41:28;;;;;;;11.57;7.47;;;;;;;;;;5027458;28;20190;-70
2022/09/08 09:44:23;;;;;;;8.75;7.07;;;;;;;;;;5020170;28;20171;-69
2022/09/08 09:47:14;;;;;;;9.38;7.35;;;;;;;;;;5022348;28;20202;-68
2022/09/08 09:50:12;;;;;;;10.20;8.05;;;;;;;;;;5016441;28;20170;-70
2022/09/08 09:53:12;;;;;;;9.52;7.57;;;;;;;;;;5029297;28;20531;-69
2022/09/08 09:55:56;;;;;;;8.82;6.95;;;;;;;;;;5012378;28;20206;-69
2022/09/08 09:58:52;;;;;;;8.15;7.20;;;;;;;;;;5023208;28;20305;-69
2022/09/08 10:01:57;;;;;;;8.13;7.28;;;;;;;;;;5021451;28;20227;-68
2022/09/08 10:04:41;;;;;;;9.02;6.80;;;;;;;;;;5015933;28;20584;-68
2022/09/08 10:07:18;;;;;;;8.48;6.72;;;;;;;;;;5029272;28;20248;-69
2022/09/08 10:10:21;;;;;;;8.45;7.53;;;;;;;;;;5029468;28;20634;-69
2022/09/08 10:13:20;;;;;;;9.07;8.13;;;;;;;;;;5029102;28;20189;-69
2022/09/08 10:16:02;;;;;;;11.52;8.73;;;;;;;;;;5026617;28;20175;-68
2022/09/08 10:18:59;;;;;;;9.98;8.45;;;;;;;;;;5022465;28;20224;-68
2022/09/08 10:21:38;;;;;;;8.60;7.72;;;;;;;;;;5026570;28;20178;-69
2022/09/08 10:24:32;;;;;;;9.52;8.57;;;;;;;;;;5028829;28;20186;-68
2022/09/08 10:27:38;;;;;;;11.55;9.00;;;;;;;;;;5021482;28;20295;-68
2022/09/08 10:30:12;;;;;;;10.75;9.65;;;;;;;;;;5026790;28;20178;-68
2022/09/08 10:32:57;;;;;;;14.43;9.75;;;;;;;;;;5028380;28;20209;-68
2022/09/08 10:35:37;;;;;;;9.90;8.88;;;;;;;;;;5020878;28;20175;-68
2022/09/08 10:38:17;;;;;;;8.98;8.07;;;;;;;;;;5024383;28;20263;-67
2022/09/08 10:40:55;;;;;;;10.65;8.18;;;;;;;;;;5027571;28;20728;-68
2022/09/08 10:43:32;;;;;;;12.82;9.02;;;;;;;;;;5027293;28;20215;-68
2022/09/08 10:46:40;;;;;;;10.30;9.02;;;;;;;;;;5017408;28;20194;-68
2022/09/08 10:49:39;;;;;;;8.80;7.95;;;;;;;;;;5018374;28;20697;-67
2022/09/08 10:52:26;;;;;;;12.00;9.93;;;;;;;;;;5016831;28;20182;-68
2022/09/08 10:55:16;;;;;;;12.50;10.30;;;;;;;;;;5023069;28;20178;-68
2022/09/08 10:57:50;;;;;;;11.35;10.18;;;;;;;;;;5027696;28;20178;-68
2022/09/08 11:00:19;;;;;;;12.32;11.02;;;;;;;;;;5027535;28;20673;-67
2022/09/08 11:03:19;;;;;;;11.27;10.00;;;;;;;;;;5027765;28;20182;-69
2022/09/08 11:05:50;;;;;;;12.88;10.95;;;;;;;;;;5027743;28;20232;-67
2022/09/08 11:08:15;;;;;;;12.63;11.32;;;;;;;;;;5025706;28;20189;-67
2022/09/08 11:11:11;;;;;;;16.02;11.73;;;;;;;;;;5027574;28;20572;-67
2022/09/08 11:13:42;;;;;;;13.82;11.65;;;;;;;;;;5020417;28;20185;-67
2022/09/08 11:16:08;;;;;;;15.98;12.70;;;;;;;;;;5022165;28;20269;-67
2022/09/08 11:18:59;;;;;;;12.35;10.32;;;;;;;;;;5023820;28;20332;-67
2022/09/08 11:21:29;;;;;;;14.15;12.63;;;;;;;;;;5021527;28;20561;-66
2022/09/08 11:24:21;;;;;;;16.15;11.45;;;;;;;;;;5022553;28;20630;-67
2022/09/08 11:27:05;;;;;;;16.20;11.77;;;;;;;;;;5021860;28;20263;-67
2022/09/08 11:29:34;;;;;;;13.55;9.80;;;;;;;;;;5021629;28;20186;-67
2022/09/08 11:32:18;;;;;;;13.40;10.68;;;;;;;;;;5028294;28;20657;-67
2022/09/08 11:35:03;;;;;;;15.18;11.82;;;;;;;;;;5024361;28;20220;-67
2022/09/08 11:37:48;;;;;;;15.00;10.85;;;;;;;;;;5022633;28;20240;-67
2022/09/08 11:40:39;;;;;;;11.88;10.57;;;;;;;;;;5028608;28;20193;-70
2022/09/08 11:43:26;;;;;;;9.48;8.32;;;;;;;;;;5019126;28;20182;-66
2022/09/08 11:46:20;;;;;;;10.55;8.68;;;;;;;;;;5019460;28;20201;-66
2022/09/08 11:49:24;;;;;;;10.70;8.85;;;;;;;;;;5022413;28;20252;-66
2022/09/08 11:52:09;;;;;;;13.18;9.70;;;;;;;;;;5016974;28;20190;-67
2022/09/08 11:55:01;;;;;;;11.43;8.27;;;;;;;;;;5022725;28;20182;-66
2022/09/08 11:57:59;;;;;;;10.30;8.13;;;;;;;;;;5023322;28;20606;-67
2022/09/08 12:01:02;;;;;;;10.15;7.22;;;;;;;;;;5015311;28;20257;-66
2022/09/08 12:03:50;;;;;;;9.75;7.22;;;;;;;;;;5023125;28;20471;-66
2022/09/08 12:06:45;;;;;;;11.07;6.65;;;;;;;;;;5016115;28;20702;-66
2022/09/08 12:09:31;;;;;;;7.60;6.47;;;;;;;;;;5023101;28;20638;-67
2022/09/08 12:12:09;;;;;;;9.70;7.13;;;;;;;;;;5019975;28;20248;-67
2022/09/08 12:15:01;;;;;;;8.20;6.43;;;;;;;;;;5023334;28;20186;-67
2022/09/08 12:18:04;;;;;;;9.32;6.85;;;;;;;;;;5017656;28;20555;-66
2022/09/08 12:20:44;;;;;;;8.57;5.78;;;;;;;;;;5019765;28;20192;-66
2022/09/08 12:23:22;;;;;;;8.25;5.65;;;;;;;;;;5022122;28;20184;-66
2022/09/08 12:26:14;;;;;;;8.32;5.13;;;;;;;;;;5017752;28;20289;-65
2022/09/08 12:28:53;;;;;;;5.60;4.90;;;;;;;;;;5022067;28;20653;-66
2022/09/08 12:31:40;;;;;;;8.30;5.38;;;;;;;;;;5023868;28;20212;-66
2022/09/08 12:34:39;;;;;;;8.57;5.50;;;;;;;;;;5021434;28;20646;-66
2022/09/08 12:37:13;;;;;;;9.18;6.00;;;;;;;;;;5017830;28;20194;-66
2022/09/08 12:40:06;;;;;;;8.68;4.80;;;;;;;;;;5025956;28;20248;-66
2022/09/08 12:42:41;;;;;;;7.38;4.63;;;;;;;;;;5011993;28;20193;-66
2022/09/08 12:45:30;;;;;;;9.45;4.75;;;;;;;;;;5018220;28;20264;-66
2022/09/08 12:48:28;;;;;;;7.72;4.20;;;;;;;;;;5024942;28;20196;-66
2022/09/08 12:51:25;;;;;;;7.32;4.10;;;;;;;;;;5013519;28;20179;-65
2022/09/08 12:54:18;;;;;;;4.85;3.92;;;;;;;;;;5013483;28;20276;-66
2022/09/08 12:56:51;;;;;;;9.45;4.65;;;;;;;;;;5024781;28;20299;-65
2022/09/08 12:59:31;;;;;;;7.47;4.35;;;;;;;;;;5026192;28;20507;-66
2022/09/08 13:02:05;;;;;;;5.50;3.70;;;;;;;;;;5025664;28;20175;-67
2022/09/08 13:04:42;;;;;;;7.97;4.03;;;;;;;;;;5027758;28;20230;-66
2022/09/08 13:07:32;;;;;;;6.47;3.67;;;;;;;;;;5026048;28;20250;-66
2022/09/08 13:10:14;;;;;;;5.10;3.38;;;;;;;;;;5027775;28;20757;-66
2022/09/08 13:12:51;;;;;;;6.10;3.47;;;;;;;;;;5008600;28;20179;-66
2022/09/08 13:16:00;;;;;;;5.20;3.22;;;;;;;;;;5021539;28;20568;-66
2022/09/08 13:18:51;;;;;;;7.53;4.03;;;;;;;;;;5002763;28;20886;-66
2022/09/08 13:21:34;;;;;;;5.50;3.70;;;;;;;;;;5004411;28;20743;-66
2022/09/08 13:24:38;;;;;;;4.72;3.55;;;;;;;;;;5023735;28;20624;-67
2022/09/08 13:27:15;;;;;;;6.03;3.83;;;;;;;;;;5027344;28;20300;-66
2022/09/08 13:29:59;;;;;;;4.50;3.75;;;;;;;;;;5029372;28;20177;-66
2022/09/08 13:32:37;;;;;;;5.95;3.53;;;;;;;;;;5026888;28;20198;-66
2022/09/08 13:35:23;;;;;;;7.05;3.80;;;;;;;;;;5028878;28;20715;-66
2022/09/08 13:38:07;;;;;;;5.00;3.85;;;;;;;;;;5028191;28;20248;-66
2022/09/08 13:40:46;;;;;;;5.07;3.70;;;;;;;;;;5028436;28;20204;-66
2022/09/08 13:43:45;;;;;;;6.88;3.17;;;;;;;;;;5026416;28;20524;-66
2022/09/08 13:46:54;;;;;;;4.97;1.98;;;;;;;;;;5027134;28;20225;-66
2022/09/08 13:49:39;;;;;;;5.32;2.10;;;;;;;;;;5028917;28;20181;-66
2022/09/08 13:52:42;;;;;;;4.85;2.17;;;;;;;;;;5029994;28;20735;-66
2022/09/08 13:55:28;;;;;;;6.07;2.35;;;;;;;;;;5028242;28;20505;-66
2022/09/08 13:58:19;;;;;;;2.90;2.20;;;;;;;;;;5029316;28;20234;-68
2022/09/08 14:01:10;;;;;;;5.20;2.22;;;;;;;;;;5026602;28;20178;-66
2022/09/08 14:03:54;;;;;;;4.07;2.00;;;;;;;;;;5025558;28;20218;-66
2022/09/08 14:06:20;;;;;;;7.05;2.22;;;;;;;;;;5027426;28;20217;-66
2022/09/08 14:08:58;;;;;;;4.75;2.00;;;;;;;;;;5025058;28;20558;-66
2022/09/08 14:11:42;;;;;;;5.68;2.10;;;;;;;;;;5028281;28;20178;-66
2022/09/08 14:14:43;;;;;;;4.68;1.70;;;;;;;;;;5027356;28;20193;-67
2022/09/08 14:17:30;;;;;;;4.25;1.90;;;;;;;;;;5027740;28;20288;-66
2022/09/08 14:20:15;;;;;;;3.90;1.70;;;;;;;;;;5026273;28;20185;-66
2022/09/08 14:23:05;;;;;;;5.55;1.80;;;;;;;;;;5025109;28;20610;-67
2022/09/08 14:25:32;;;;;;;4.25;1.60;;;;;;;;;;5027093;28;20190;-66
2022/09/08 14:28:16;;;;;;;4.80;2.05;;;;;;;;;;5027525;28;20693;-66
2022/09/08 14:31:00;;;;;;;5.95;1.80;;;;;;;;;;5022189;28;20170;-66
2022/09/08 14:33:50;;;;;;;5.90;1.73;;;;;;;;;;5022395;28;20661;-66
2022/09/08 14:36:33;;;;;;;6.88;2.08;;;;;;;;;;5026493;28;20283;-66
2022/09/08 14:39:23;;;;;;;4.43;1.55;;;;;;;;;;5026993;28;20190;-67
2022/09/08 14:42:08;;;;;;;5.53;1.92;;;;;;;;;;5027018;28;20189;-67
2022/09/08 14:45:04;;;;;;;6.78;2.17;;;;;;;;;;5027384;28;20214;-67
2022/09/08 14:47:54;;;;;;;5.18;1.85;;;;;;;;;;5025197;28;20206;-67
2022/09/08 14:50:31;;;;;;;6.90;2.00;;;;;;;;;;5026590;28;20174;-66
2022/09/08 14:53:21;;;;;;;8.15;1.70;;;;;;;;;;5023604;28;20277;-67
2022/09/08 14:56:02;;;;;;;3.70;1.85;;;;;;;;;;5025934;28;20178;-66
2022/09/08 14:58:55;;;;;;;5.28;1.80;;;;;;;;;;5026855;28;20185;-67
2022/09/08 15:01:29;;;;;;;7.07;1.73;;;;;;;;;;5026241;28;20186;-67
2022/09/08 15:04:11;;;;;;;7.20;1.60;;;;;;;;;;5022407;28;20264;-67
2022/09/08 15:06:45;;;;;;;6.28;1.77;;;;;;;;;;5022064;28;20223;-67
2022/09/08 15:09:44;;;;;;;3.58;1.58;;;;;;;;;;5019907;28;20487;-66
2022/09/08 15:12:52;;;;;;;2.83;1.55;;;;;;;;;;5021449;28;20273;-66
2022/09/08 15:15:25;;;;;;;7.05;1.90;;;;;;;;;;5013830;28;20206;-67
2022/09/08 15:17:55;;;;;;;6.18;1.95;;;;;;;;;;5024231;28;20250;-67
2022/09/08 15:20:24;;;;;;;4.75;1.30;;;;;;;;;;5023360;28;20378;-67
2022/09/08 15:23:13;;;;;;;5.50;1.73;;;;;;;;;;5027488;28;20194;-67
2022/09/08 15:26:02;;;;;;;4.95;1.40;;;;;;;;;;5026441;28;20376;-67
2022/09/08 15:28:38;;;;;;;3.40;1.25;;;;;;;;;;5025307;28;20178;-67
2022/09/08 15:31:23;;;;;;;7.47;1.45;;;;;;;;;;5025675;28;20185;-67
2022/09/08 15:34:11;;;;;;;5.93;1.42;;;;;;;;;;5025027;28;20193;-66
2022/09/08 15:36:48;;;;;;;5.60;1.60;;;;;;;;;;5026275;28;20253;-66
2022/09/08 15:39:40;;;;;;;9.23;1.25;;;;;;;;;;5024313;28;20280;-67
2022/09/08 15:42:42;;;;;;;6.93;1.63;;;;;;;;;;5022444;28;20692;-67
2022/09/08 15:45:19;;;;;;;3.42;1.33;;;;;;;;;;5024990;28;20208;-66
2022/09/08 15:48:16;;;;;;;7.47;1.30;;;;;;;;;;5027304;28;20665;-67
2022/09/08 15:50:56;;;;;;;8.73;1.80;;;;;;;;;;5027245;28;20197;-67
2022/09/08 15:53:44;;;;;;;7.28;1.90;;;;;;;;;;5023001;28;20182;-67
2022/09/08 15:56:34;;;;;;;5.93;1.73;;;;;;;;;;5025279;28;20182;-67
2022/09/08 15:59:13;;;;;;;7.32;1.38;;;;;;;;;;5023998;28;20619;-67
2022/09/08 16:02:19;;;;;;;5.00;1.30;;;;;;;;;;5025006;28;20454;-66
2022/09/08 16:05:08;;;;;;;6.60;1.23;;;;;;;;;;5019844;28;20697;-67
2022/09/08 16:07:55;;;;;;;3.97;1.00;;;;;;;;;;5024478;28;20323;-66
2022/09/08 16:10:22;;;;;;;4.50;1.13;;;;;;;;;;5014289;28;20177;-69
2022/09/08 16:13:07;;;;;;;4.57;1.40;;;;;;;;;;5021945;28;20193;-66
2022/09/08 16:15:46;;;;;;;4.90;1.17;;;;;;;;;;5020819;28;20573;-66
2022/09/08 16:18:23;;;;;;;7.72;1.38;;;;;;;;;;5018863;28;20736;-66
2022/09/08 16:20:55;;;;;;;4.78;1.30;;;;;;;;;;5017267;28;20225;-66
2022/09/08 16:23:33;;;;;;;4.53;1.23;;;;;;;;;;5020109;28;20202;-66
2022/09/08 16:26:29;;;;;;;6.32;1.30;;;;;;;;;;5014277;28;20237;-66
2022/09/08 16:29:01;;;;;;;3.33;1.17;;;;;;;;;;5020503;28;20514;-67
2022/09/08 16:31:49;;;;;;;6.03;1.27;;;;;;;;;;5021310;28;20214;-66
2022/09/08 16:34:31;;;;;;;4.15;1.40;;;;;;;;;;5022696;28;20661;-66
2022/09/08 16:37:12;;;;;;;3.50;1.20;;;;;;;;;;5023244;28;20210;-66
2022/09/08 16:39:38;;;;;;;4.22;1.45;;;;;;;;;;5025304;28;20469;-67
2022/09/08 16:42:13;;;;;;;5.30;1.48;;;;;;;;;;5025921;28;20209;-66
2022/09/08 16:44:54;;;;;;;2.83;1.30;;;;;;;;;;5023181;28;20549;-66
2022/09/08 16:47:37;;;;;;;5.50;1.15;;;;;;;;;;5026138;28;20210;-66
2022/09/08 16:50:25;;;;;;;3.80;1.38;;;;;;;;;;5022782;28;20198;-66
2022/09/08 16:53:16;;;;;;;3.65;1.33;;;;;;;;;;5020734;28;20614;-66
2022/09/08 16:55:58;;;;;;;7.38;1.58;;;;;;;;;;5019203;28;20657;-66
2022/09/08 16:58:34;;;;;;;6.63;1.33;;;;;;;;;;5027991;28;20182;-66
2022/09/08 17:01:18;;;;;;;3.28;1.17;;;;;;;;;;4587966;28;10002908;-66
2022/09/08 17:04:15;;;;;;;4.68;1.33;;;;;;;;;;5019189;28;20240;-66
2022/09/08 17:06:40;;;;;;;6.00;1.45;;;;;;;;;;5017187;28;20210;-66
2022/09/08 17:09:14;;;;;;;3.90;1.10;;;;;;;;;;5023147;28;20545;-66
2022/09/08 17:11:45;;;;;;;5.53;1.40;;;;;;;;;;5023176;28;20717;-67